Time;durP1;ratioP1;P1;durP2;ratioP2;P2;SDS_P1;SDS_P2;PMS_P1;PMS_P2;Temp;Humidity;BMP_temperature;BMP_pressure;BME280_temperature;BME280_humidity;BME280_pressure;Samples;Min_cycle;Max_cycle;Signal;HPM_P1;HPM_P2
2022/10/26 00:00:29;;;;;;;1.30;1.13;;;;;;;;;;5059566;27;86973;-55
2022/10/26 00:02:58;;;;;;;1.00;0.90;;;;;;;;;;5057681;27;90068;-55
2022/10/26 00:05:27;;;;;;;1.03;0.90;;;;;;;;;;5047001;27;90040;-54
2022/10/26 00:07:56;;;;;;;2.03;1.17;;;;;;;;;;5041381;28;86965;-54
2022/10/26 00:10:24;;;;;;;1.43;0.90;;;;;;;;;;5042105;28;86968;-54
2022/10/26 00:12:56;;;;;;;0.70;0.70;;;;;;;;;;5056177;27;89186;-53
2022/10/26 00:15:25;;;;;;;3.30;1.57;;;;;;;;;;5058426;27;88423;-54
2022/10/26 00:17:53;;;;;;;0.60;0.60;;;;;;;;;;5041335;28;87111;-54
2022/10/26 00:20:21;;;;;;;1.77;0.67;;;;;;;;;;5047761;27;86585;-54
2022/10/26 00:22:51;;;;;;;2.00;1.00;;;;;;;;;;5041320;27;88727;-53
2022/10/26 00:25:19;;;;;;;3.70;0.97;;;;;;;;;;5042028;27;87569;-55
2022/10/26 00:27:47;;;;;;;0.83;0.70;;;;;;;;;;5052912;27;88052;-54
2022/10/26 00:30:16;;;;;;;1.30;0.83;;;;;;;;;;5041126;28;87633;-53
2022/10/26 00:32:44;;;;;;;1.27;0.80;;;;;;;;;;5046476;27;89177;-54
2022/10/26 00:35:13;;;;;;;0.97;0.90;;;;;;;;;;5058378;27;87650;-55
2022/10/26 00:37:57;;;;;;;0.57;0.57;;;;;;;;;;5052404;27;87082;-53
2022/10/26 00:40:28;;;;;;;1.83;0.87;;;;;;;;;;5061112;27;88246;-53
2022/10/26 00:42:56;;;;;;;0.87;0.80;;;;;;;;;;5051491;27;88931;-54
2022/10/26 00:45:25;;;;;;;1.27;0.73;;;;;;;;;;5051983;27;87534;-54
2022/10/26 00:47:53;;;;;;;2.63;0.70;;;;;;;;;;5040405;27;87089;-54
2022/10/26 00:50:22;;;;;;;1.07;0.50;;;;;;;;;;5040457;27;86936;-54
2022/10/26 00:52:51;;;;;;;1.40;0.90;;;;;;;;;;5058235;27;89830;-53
2022/10/26 00:55:20;;;;;;;6.33;0.93;;;;;;;;;;5059658;27;89803;-54
2022/10/26 00:57:49;;;;;;;0.57;0.57;;;;;;;;;;5043775;27;87072;-54
2022/10/26 01:00:17;;;;;;;0.97;0.97;;;;;;;;;;5052335;27;87087;-53
2022/10/26 01:02:45;;;;;;;2.90;0.93;;;;;;;;;;5040973;27;88914;-53
2022/10/26 01:05:14;;;;;;;1.77;1.00;;;;;;;;;;5040619;27;88887;-53
2022/10/26 01:07:43;;;;;;;0.87;0.57;;;;;;;;;;5041616;27;87049;-54
2022/10/26 01:10:12;;;;;;;1.03;0.97;;;;;;;;;;5041089;28;86425;-54
2022/10/26 01:12:42;;;;;;;1.03;0.80;;;;;;;;;;5052854;27;88986;-53
2022/10/26 01:15:10;;;;;;;1.97;1.00;;;;;;;;;;5041206;27;88871;-53
2022/10/26 01:17:44;;;;;;;1.27;0.87;;;;;;;;;;5052805;27;88027;-55
2022/10/26 01:20:36;;;;;;;0.70;0.70;;;;;;;;;;5039854;27;87215;-53
2022/10/26 01:23:05;;;;;;;0.97;0.93;;;;;;;;;;5052334;27;88950;-53
2022/10/26 01:25:42;;;;;;;2.40;1.10;;;;;;;;;;5041441;27;88868;-54
2022/10/26 01:28:13;;;;;;;5.73;0.90;;;;;;;;;;5042502;27;88160;-54
2022/10/26 01:30:44;;;;;;;2.63;1.00;;;;;;;;;;5058680;27;88193;-53
2022/10/26 01:33:18;;;;;;;4.77;1.30;;;;;;;;;;5054135;27;89216;-53
2022/10/26 01:35:50;;;;;;;2.17;1.00;;;;;;;;;;5045274;27;88828;-54
2022/10/26 01:38:18;;;;;;;2.00;1.10;;;;;;;;;;5050744;27;86918;-54
2022/10/26 01:40:47;;;;;;;3.73;1.60;;;;;;;;;;5049297;27;86985;-54
2022/10/26 01:43:15;;;;;;;1.73;1.10;;;;;;;;;;5039383;28;90107;-54
2022/10/26 01:45:46;;;;;;;2.63;0.97;;;;;;;;;;5040114;27;88759;-54
2022/10/26 01:48:14;;;;;;;1.77;1.00;;;;;;;;;;5040406;27;87058;-55
2022/10/26 01:50:42;;;;;;;2.77;0.80;;;;;;;;;;5040062;27;87104;-55
2022/10/26 01:53:12;;;;;;;1.07;0.97;;;;;;;;;;5048570;27;89029;-54
2022/10/26 01:55:41;;;;;;;1.13;0.93;;;;;;;;;;5041082;27;88830;-54
2022/10/26 01:58:11;;;;;;;1.40;1.10;;;;;;;;;;5055377;27;87314;-54
2022/10/26 02:00:40;;;;;;;1.20;1.10;;;;;;;;;;5049782;27;86179;-55
2022/10/26 02:03:11;;;;;;;1.10;0.90;;;;;;;;;;5045964;27;89027;-54
2022/10/26 02:06:00;;;;;;;1.03;0.90;;;;;;;;;;5043690;27;88880;-54
2022/10/26 02:08:33;;;;;;;1.77;0.93;;;;;;;;;;5045659;27;87994;-55
2022/10/26 02:11:02;;;;;;;1.23;0.80;;;;;;;;;;5054551;27;87032;-54
2022/10/26 02:13:32;;;;;;;2.30;1.23;;;;;;;;;;5050991;27;88165;-56
2022/10/26 02:16:01;;;;;;;1.33;1.23;;;;;;;;;;5063138;27;87574;-54
2022/10/26 02:18:32;;;;;;;1.30;1.10;;;;;;;;;;5061938;27;87065;-55
2022/10/26 02:21:01;;;;;;;1.27;1.03;;;;;;;;;;5063503;27;86925;-55
2022/10/26 02:23:30;;;;;;;0.90;0.90;;;;;;;;;;5051153;27;89302;-55
2022/10/26 02:25:59;;;;;;;0.93;0.80;;;;;;;;;;5047660;27;88776;-55
2022/10/26 02:28:28;;;;;;;3.70;0.83;;;;;;;;;;5053538;27;87319;-55
2022/10/26 02:30:57;;;;;;;1.87;1.13;;;;;;;;;;5061765;27;87178;-51
2022/10/26 02:33:25;;;;;;;0.90;0.90;;;;;;;;;;5043113;27;90041;-54
2022/10/26 02:35:55;;;;;;;1.33;0.70;;;;;;;;;;5050696;27;88479;-54
2022/10/26 02:38:23;;;;;;;1.33;0.97;;;;;;;;;;5047843;27;86980;-55
2022/10/26 02:40:51;;;;;;;1.27;1.07;;;;;;;;;;5055323;27;87094;-55
2022/10/26 02:43:21;;;;;;;1.30;1.03;;;;;;;;;;5042859;27;86926;-54
2022/10/26 02:45:51;;;;;;;3.17;0.93;;;;;;;;;;5060530;27;88400;-54
2022/10/26 02:48:20;;;;;;;0.60;0.60;;;;;;;;;;5056347;27;87073;-55
2022/10/26 02:50:50;;;;;;;1.43;0.90;;;;;;;;;;5048375;27;86356;-54
2022/10/26 02:53:22;;;;;;;0.77;0.77;;;;;;;;;;5062376;27;89246;-55
2022/10/26 02:55:51;;;;;;;1.77;0.70;;;;;;;;;;5062692;27;87899;-55
2022/10/26 02:58:20;;;;;;;1.73;1.07;;;;;;;;;;5057603;27;89439;-54
2022/10/26 03:00:49;;;;;;;1.07;0.87;;;;;;;;;;5043036;27;87043;-54
2022/10/26 03:03:17;;;;;;;0.57;0.57;;;;;;;;;;5048849;27;87942;-54
2022/10/26 03:05:45;;;;;;;1.77;0.90;;;;;;;;;;5055252;27;88833;-54
2022/10/26 03:08:13;;;;;;;1.07;0.80;;;;;;;;;;5048147;27;87027;-55
2022/10/26 03:10:43;;;;;;;1.33;0.63;;;;;;;;;;5060300;27;87021;-55
2022/10/26 03:13:12;;;;;;;0.63;0.63;;;;;;;;;;5050863;27;88948;-55
2022/10/26 03:15:40;;;;;;;1.40;0.80;;;;;;;;;;5060777;27;87727;-53
2022/10/26 03:18:09;;;;;;;0.87;0.87;;;;;;;;;;5046542;27;86954;-53
2022/10/26 03:20:37;;;;;;;0.70;0.70;;;;;;;;;;5050552;27;87100;-54
2022/10/26 03:23:05;;;;;;;0.67;0.60;;;;;;;;;;5061614;27;88972;-53
2022/10/26 03:25:33;;;;;;;0.70;0.70;;;;;;;;;;5060959;27;88425;-53
2022/10/26 03:28:03;;;;;;;0.60;0.60;;;;;;;;;;5043005;27;87062;-53
2022/10/26 03:30:32;;;;;;;2.30;0.70;;;;;;;;;;5041793;27;86897;-52
2022/10/26 03:33:00;;;;;;;6.50;0.90;;;;;;;;;;5041476;27;88821;-53
2022/10/26 03:35:28;;;;;;;0.73;0.70;;;;;;;;;;5042742;27;87084;-54
2022/10/26 03:37:56;;;;;;;1.73;1.00;;;;;;;;;;5058042;27;87252;-54
2022/10/26 03:40:25;;;;;;;0.60;0.60;;;;;;;;;;5062123;27;86185;-54
2022/10/26 03:42:53;;;;;;;1.23;0.50;;;;;;;;;;5061647;27;89145;-56
2022/10/26 03:45:23;;;;;;;0.57;0.40;;;;;;;;;;5061806;27;86999;-56
2022/10/26 03:47:51;;;;;;;2.50;1.03;;;;;;;;;;5044075;27;88056;-53
2022/10/26 03:50:20;;;;;;;1.03;0.90;;;;;;;;;;5045006;27;86994;-53
2022/10/26 03:52:48;;;;;;;1.50;0.80;;;;;;;;;;5060972;27;88278;-54
2022/10/26 03:55:18;;;;;;;0.60;0.60;;;;;;;;;;5059475;27;87525;-54
2022/10/26 03:57:46;;;;;;;3.30;0.83;;;;;;;;;;5041455;27;87043;-54
2022/10/26 04:00:15;;;;;;;0.77;0.70;;;;;;;;;;5041617;27;86995;-54
2022/10/26 04:02:47;;;;;;;1.50;1.10;;;;;;;;;;5041154;27;88997;-54
2022/10/26 04:05:16;;;;;;;0.80;0.70;;;;;;;;;;5041404;27;88890;-55
2022/10/26 04:07:44;;;;;;;0.80;0.80;;;;;;;;;;5041704;27;87084;-54
2022/10/26 04:10:12;;;;;;;0.70;0.70;;;;;;;;;;5041431;27;88590;-55
2022/10/26 04:12:40;;;;;;;0.83;0.70;;;;;;;;;;5048565;27;89030;-54
2022/10/26 04:15:10;;;;;;;0.60;0.53;;;;;;;;;;5043181;27;88861;-53
2022/10/26 04:17:38;;;;;;;0.63;0.63;;;;;;;;;;5058253;27;87470;-55
2022/10/26 04:20:09;;;;;;;0.87;0.70;;;;;;;;;;5055591;27;87048;-54
2022/10/26 04:22:37;;;;;;;1.10;0.60;;;;;;;;;;5042385;27;89125;-54
2022/10/26 04:25:06;;;;;;;0.50;0.50;;;;;;;;;;5060406;27;88882;-53
2022/10/26 04:27:35;;;;;;;1.87;0.90;;;;;;;;;;5059114;27;87115;-54
2022/10/26 04:30:04;;;;;;;1.83;1.00;;;;;;;;;;5061347;27;87146;-54
2022/10/26 04:32:32;;;;;;;2.43;0.70;;;;;;;;;;5059673;27;89151;-55
2022/10/26 04:35:01;;;;;;;1.27;0.90;;;;;;;;;;5043679;27;88929;-55
2022/10/26 04:37:30;;;;;;;3.73;0.87;;;;;;;;;;5055364;27;88021;-55
2022/10/26 04:39:58;;;;;;;0.90;0.60;;;;;;;;;;5061349;27;87134;-55
2022/10/26 04:42:27;;;;;;;0.80;0.80;;;;;;;;;;5051547;27;89111;-53
2022/10/26 04:44:55;;;;;;;1.60;0.70;;;;;;;;;;5058049;27;87561;-59
2022/10/26 04:47:23;;;;;;;0.60;0.60;;;;;;;;;;5059467;27;87132;-54
2022/10/26 04:49:51;;;;;;;1.07;0.80;;;;;;;;;;5049405;27;87131;-54
2022/10/26 04:52:20;;;;;;;0.80;0.67;;;;;;;;;;5057880;27;89237;-54
2022/10/26 04:54:49;;;;;;;3.43;0.87;;;;;;;;;;5055424;27;87520;-53
2022/10/26 04:57:18;;;;;;;1.10;0.80;;;;;;;;;;5060671;27;87001;-53
2022/10/26 04:59:46;;;;;;;1.10;0.90;;;;;;;;;;5041116;28;87026;-54
2022/10/26 05:02:14;;;;;;;1.63;0.70;;;;;;;;;;5047303;27;90056;-55
2022/10/26 05:04:42;;;;;;;0.77;0.70;;;;;;;;;;5054955;27;88821;-54
2022/10/26 05:07:11;;;;;;;3.40;0.70;;;;;;;;;;5055134;27;87119;-54
2022/10/26 05:09:39;;;;;;;0.97;0.70;;;;;;;;;;5056988;27;89313;-53
2022/10/26 05:12:09;;;;;;;0.50;0.50;;;;;;;;;;5043530;27;88900;-53
2022/10/26 05:14:37;;;;;;;1.17;0.60;;;;;;;;;;5040791;27;88874;-53
2022/10/26 05:17:05;;;;;;;0.67;0.40;;;;;;;;;;5055614;27;87058;-53
2022/10/26 05:19:33;;;;;;;2.50;0.83;;;;;;;;;;5048058;27;86478;-53
2022/10/26 05:22:02;;;;;;;1.53;0.67;;;;;;;;;;5055361;27;89084;-53
2022/10/26 05:24:30;;;;;;;1.50;0.80;;;;;;;;;;5045999;27;88839;-53
2022/10/26 05:26:58;;;;;;;1.13;0.70;;;;;;;;;;5041251;27;88308;-56
2022/10/26 05:29:28;;;;;;;1.10;1.00;;;;;;;;;;5040676;28;87146;-53
2022/10/26 05:31:56;;;;;;;1.63;0.93;;;;;;;;;;5040413;27;88843;-53
2022/10/26 05:34:24;;;;;;;1.20;1.10;;;;;;;;;;5053138;27;88880;-55
2022/10/26 05:36:54;;;;;;;0.70;0.70;;;;;;;;;;5056255;27;87044;-54
2022/10/26 05:39:22;;;;;;;2.00;0.60;;;;;;;;;;5050708;27;87119;-53
2022/10/26 05:41:50;;;;;;;0.57;0.57;;;;;;;;;;5056380;27;89074;-54
2022/10/26 05:44:19;;;;;;;0.80;0.70;;;;;;;;;;5052996;27;88890;-55
2022/10/26 05:46:48;;;;;;;0.63;0.63;;;;;;;;;;5054556;27;87056;-55
2022/10/26 05:49:21;;;;;;;1.37;1.00;;;;;;;;;;5056286;27;87096;-54
2022/10/26 05:51:50;;;;;;;2.70;0.60;;;;;;;;;;5044486;27;89859;-55
2022/10/26 05:54:18;;;;;;;0.70;0.70;;;;;;;;;;5054847;27;89929;-54
2022/10/26 05:56:46;;;;;;;5.37;0.90;;;;;;;;;;5050185;27;87254;-54
2022/10/26 05:59:15;;;;;;;1.63;0.80;;;;;;;;;;5059396;27;86926;-55
2022/10/26 06:01:56;;;;;;;2.53;0.73;;;;;;;;;;5045538;27;89215;-54
2022/10/26 06:04:29;;;;;;;0.60;0.60;;;;;;;;;;5043338;27;88698;-54
2022/10/26 06:06:57;;;;;;;1.10;0.90;;;;;;;;;;5053689;27;87149;-54
2022/10/26 06:09:26;;;;;;;0.60;0.60;;;;;;;;;;5049575;27;86687;-53
2022/10/26 06:11:54;;;;;;;0.77;0.70;;;;;;;;;;5063224;27;89094;-54
2022/10/26 06:14:23;;;;;;;1.13;0.60;;;;;;;;;;5063568;27;87599;-54
2022/10/26 06:16:56;;;;;;;0.77;0.57;;;;;;;;;;5051607;27;87894;-54
2022/10/26 06:19:27;;;;;;;0.93;0.83;;;;;;;;;;5054467;27;87197;-53
2022/10/26 06:21:57;;;;;;;1.07;0.73;;;;;;;;;;5059341;27;88058;-54
2022/10/26 06:24:28;;;;;;;0.70;0.60;;;;;;;;;;5044207;27;88599;-55
2022/10/26 06:26:58;;;;;;;0.70;0.70;;;;;;;;;;5044571;27;86993;-53
2022/10/26 06:29:30;;;;;;;1.20;0.70;;;;;;;;;;5060149;27;87116;-54
2022/10/26 06:32:00;;;;;;;0.90;0.57;;;;;;;;;;5052637;27;89175;-54
2022/10/26 06:34:29;;;;;;;0.50;0.50;;;;;;;;;;5053353;27;87578;-55
2022/10/26 06:36:57;;;;;;;0.70;0.70;;;;;;;;;;5049950;27;87051;-53
2022/10/26 06:39:26;;;;;;;0.53;0.53;;;;;;;;;;5053206;27;87388;-53
2022/10/26 06:41:54;;;;;;;2.07;0.60;;;;;;;;;;5044706;27;88893;-54
2022/10/26 06:44:24;;;;;;;1.03;0.70;;;;;;;;;;5041943;27;88383;-53
2022/10/26 06:46:54;;;;;;;1.07;0.77;;;;;;;;;;5046686;27;87754;-53
2022/10/26 06:49:26;;;;;;;0.60;0.60;;;;;;;;;;5061161;27;87094;-54
2022/10/26 06:51:56;;;;;;;0.70;0.70;;;;;;;;;;5058222;27;87803;-53
2022/10/26 06:54:25;;;;;;;3.13;0.50;;;;;;;;;;5043686;27;88926;-53
2022/10/26 06:56:54;;;;;;;0.53;0.53;;;;;;;;;;5048612;27;87099;-53
2022/10/26 06:59:26;;;;;;;1.93;0.70;;;;;;;;;;5060878;27;86350;-53
2022/10/26 07:01:54;;;;;;;0.73;0.70;;;;;;;;;;5052328;27;89120;-53
2022/10/26 07:04:24;;;;;;;1.43;0.70;;;;;;;;;;5062934;27;87116;-54
2022/10/26 07:06:54;;;;;;;0.53;0.53;;;;;;;;;;5061542;27;87969;-53
2022/10/26 07:09:23;;;;;;;2.20;0.80;;;;;;;;;;5060701;27;87064;-54
2022/10/26 07:11:51;;;;;;;0.67;0.60;;;;;;;;;;5054393;27;88995;-54
2022/10/26 07:14:19;;;;;;;3.67;0.80;;;;;;;;;;5041253;27;87558;-53
2022/10/26 07:16:48;;;;;;;0.87;0.70;;;;;;;;;;5046833;27;87189;-54
2022/10/26 07:19:16;;;;;;;1.87;1.13;;;;;;;;;;5054500;27;87065;-53
2022/10/26 07:21:45;;;;;;;2.70;0.70;;;;;;;;;;5050689;27;88887;-54
2022/10/26 07:24:14;;;;;;;1.00;0.70;;;;;;;;;;5050655;27;89524;-54
2022/10/26 07:26:42;;;;;;;1.53;0.67;;;;;;;;;;5054743;27;88434;-53
2022/10/26 07:29:10;;;;;;;1.13;0.80;;;;;;;;;;5059147;27;87250;-53
2022/10/26 07:31:39;;;;;;;1.37;1.27;;;;;;;;;;5050987;27;89955;-54
2022/10/26 07:34:07;;;;;;;2.17;0.53;;;;;;;;;;5048594;27;88690;-53
2022/10/26 07:36:36;;;;;;;1.10;0.93;;;;;;;;;;5054211;27;88476;-54
2022/10/26 07:39:06;;;;;;;3.60;0.90;;;;;;;;;;5048338;27;88129;-53
2022/10/26 07:41:34;;;;;;;1.00;1.00;;;;;;;;;;5054457;27;89326;-53
2022/10/26 07:44:02;;;;;;;1.90;0.73;;;;;;;;;;5053760;27;88963;-54
2022/10/26 07:46:31;;;;;;;1.30;1.00;;;;;;;;;;5045163;27;87006;-53
2022/10/26 07:48:59;;;;;;;2.40;0.90;;;;;;;;;;5045065;27;86357;-54
2022/10/26 07:51:27;;;;;;;1.33;0.73;;;;;;;;;;5061469;27;88923;-53
2022/10/26 07:53:56;;;;;;;0.47;0.47;;;;;;;;;;5061469;27;88752;-54
2022/10/26 07:56:25;;;;;;;1.17;0.93;;;;;;;;;;5060792;27;87954;-54
2022/10/26 07:58:54;;;;;;;0.80;0.57;;;;;;;;;;5061794;27;87101;-54
2022/10/26 08:01:22;;;;;;;0.80;0.80;;;;;;;;;;5061570;27;89093;-54
2022/10/26 08:03:52;;;;;;;1.90;1.30;;;;;;;;;;5061633;27;88895;-54
2022/10/26 08:06:20;;;;;;;2.50;0.80;;;;;;;;;;5062026;27;87056;-54
2022/10/26 08:08:49;;;;;;;0.90;0.70;;;;;;;;;;5061333;27;88083;-55
2022/10/26 08:11:17;;;;;;;1.63;0.97;;;;;;;;;;5061364;27;87666;-54
2022/10/26 08:13:46;;;;;;;1.13;0.60;;;;;;;;;;5061916;27;86593;-54
2022/10/26 08:16:15;;;;;;;1.33;0.93;;;;;;;;;;5056787;27;87166;-55
2022/10/26 08:18:43;;;;;;;0.97;0.70;;;;;;;;;;5041305;28;87016;-54
2022/10/26 08:21:12;;;;;;;0.80;0.80;;;;;;;;;;5042535;27;88146;-55
2022/10/26 08:23:45;;;;;;;1.40;1.23;;;;;;;;;;5041131;28;88572;-55
2022/10/26 08:26:13;;;;;;;1.23;0.80;;;;;;;;;;5042482;27;87055;-54
2022/10/26 08:28:41;;;;;;;1.00;0.93;;;;;;;;;;5042040;27;87156;-54
2022/10/26 08:31:11;;;;;;;1.37;0.80;;;;;;;;;;5041270;28;87122;-54
2022/10/26 08:33:39;;;;;;;0.93;0.83;;;;;;;;;;5041344;28;88266;-54
2022/10/26 08:36:13;;;;;;;0.50;0.50;;;;;;;;;;5041322;27;87078;-54
2022/10/26 08:38:41;;;;;;;0.77;0.70;;;;;;;;;;5051672;27;86401;-55
2022/10/26 08:41:10;;;;;;;0.60;0.60;;;;;;;;;;5061118;27;89395;-54
2022/10/26 08:43:38;;;;;;;0.73;0.60;;;;;;;;;;5060510;27;88497;-54
2022/10/26 08:46:08;;;;;;;1.47;0.80;;;;;;;;;;5060451;27;88061;-54
2022/10/26 08:48:39;;;;;;;2.20;0.90;;;;;;;;;;5046418;27;86950;-54
2022/10/26 08:51:07;;;;;;;1.20;1.10;;;;;;;;;;5040630;27;89356;-54
2022/10/26 08:53:37;;;;;;;1.03;0.90;;;;;;;;;;5058678;27;87423;-54
2022/10/26 08:56:06;;;;;;;2.57;1.33;;;;;;;;;;5061023;27;87729;-54
2022/10/26 08:58:42;;;;;;;1.00;0.90;;;;;;;;;;5056148;27;87116;-54
2022/10/26 09:01:11;;;;;;;1.07;0.90;;;;;;;;;;5061203;27;87987;-54
2022/10/26 09:03:40;;;;;;;0.70;0.70;;;;;;;;;;5060744;27;88585;-54
2022/10/26 09:06:11;;;;;;;0.57;0.57;;;;;;;;;;5060978;27;87031;-54
2022/10/26 09:08:42;;;;;;;0.90;0.87;;;;;;;;;;5043027;27;87021;-54
2022/10/26 09:11:13;;;;;;;1.53;0.90;;;;;;;;;;5039288;27;89882;-54
2022/10/26 09:13:43;;;;;;;0.70;0.70;;;;;;;;;;5059899;27;89363;-54
2022/10/26 09:16:14;;;;;;;0.77;0.77;;;;;;;;;;5058985;27;86971;-55
2022/10/26 09:18:47;;;;;;;2.70;1.00;;;;;;;;;;5055589;27;87063;-54
2022/10/26 09:21:19;;;;;;;1.77;0.73;;;;;;;;;;5045330;27;87065;-54
2022/10/26 09:23:51;;;;;;;1.53;0.80;;;;;;;;;;5056175;27;87812;-54
2022/10/26 09:26:23;;;;;;;0.83;0.50;;;;;;;;;;5059361;27;87282;-54
2022/10/26 09:28:51;;;;;;;0.70;0.70;;;;;;;;;;5057805;27;86328;-55
2022/10/26 09:31:20;;;;;;;1.27;0.70;;;;;;;;;;5049807;27;90121;-54
2022/10/26 09:33:49;;;;;;;2.40;1.07;;;;;;;;;;5049230;27;88693;-54
2022/10/26 09:36:19;;;;;;;3.10;0.90;;;;;;;;;;5059400;27;87964;-54
2022/10/26 09:38:48;;;;;;;1.73;0.67;;;;;;;;;;5045592;27;87102;-54
2022/10/26 09:41:18;;;;;;;0.70;0.70;;;;;;;;;;5041200;27;89122;-55
2022/10/26 09:43:48;;;;;;;2.23;0.70;;;;;;;;;;5040431;28;87737;-54
2022/10/26 09:46:19;;;;;;;1.33;0.83;;;;;;;;;;5047546;27;88188;-54
2022/10/26 09:48:48;;;;;;;0.87;0.77;;;;;;;;;;5060104;27;87025;-54
2022/10/26 09:51:18;;;;;;;0.73;0.73;;;;;;;;;;5058593;27;88048;-54
2022/10/26 09:53:46;;;;;;;0.50;0.50;;;;;;;;;;5049865;27;89425;-54
2022/10/26 09:56:15;;;;;;;4.87;1.03;;;;;;;;;;5052995;27;88208;-55
2022/10/26 09:58:43;;;;;;;0.83;0.80;;;;;;;;;;5052081;27;87051;-55
2022/10/26 10:01:21;;;;;;;0.60;0.60;;;;;;;;;;5054714;27;89021;-54
2022/10/26 10:03:49;;;;;;;1.67;0.93;;;;;;;;;;5042946;27;89815;-55
2022/10/26 10:06:20;;;;;;;1.47;0.57;;;;;;;;;;5044064;27;87045;-54
2022/10/26 10:09:05;;;;;;;0.97;0.80;;;;;;;;;;5047565;27;86944;-54
2022/10/26 10:11:37;;;;;;;0.63;0.63;;;;;;;;;;5040758;27;89312;-55
2022/10/26 10:14:07;;;;;;;1.47;1.07;;;;;;;;;;5058293;27;88747;-54
2022/10/26 10:16:35;;;;;;;2.03;0.67;;;;;;;;;;5054670;27;87321;-55
2022/10/26 10:19:04;;;;;;;0.57;0.57;;;;;;;;;;5040038;27;86358;-54
2022/10/26 10:21:37;;;;;;;2.03;1.00;;;;;;;;;;5050528;27;88971;-52
2022/10/26 10:24:06;;;;;;;2.07;1.00;;;;;;;;;;5052556;27;87175;-54
2022/10/26 10:26:34;;;;;;;1.87;0.70;;;;;;;;;;5047704;27;87950;-55
2022/10/26 10:29:02;;;;;;;0.73;0.70;;;;;;;;;;5042757;27;88184;-55
2022/10/26 10:31:31;;;;;;;1.50;1.20;;;;;;;;;;5049692;27;89339;-54
2022/10/26 10:33:59;;;;;;;1.30;1.10;;;;;;;;;;5060817;27;88762;-54
2022/10/26 10:36:29;;;;;;;1.20;1.10;;;;;;;;;;5047703;27;87154;-54
2022/10/26 10:38:58;;;;;;;1.73;1.63;;;;;;;;;;5042817;27;87467;-54
2022/10/26 10:41:27;;;;;;;1.50;1.40;;;;;;;;;;5048745;27;87068;-53
2022/10/26 10:43:56;;;;;;;2.47;1.83;;;;;;;;;;5060926;27;88897;-53
2022/10/26 10:46:25;;;;;;;2.30;1.83;;;;;;;;;;5063135;27;87070;-53
2022/10/26 10:49:02;;;;;;;33.83;15.53;;;;;;;;;;5046420;27;87021;-52
2022/10/26 10:51:31;;;;;;;29.63;15.67;;;;;;;;;;5042819;27;90221;-52
2022/10/26 10:54:00;;;;;;;28.60;12.13;;;;;;;;;;5055570;27;88604;-53
2022/10/26 10:56:36;;;;;;;22.20;13.73;;;;;;;;;;5048993;27;89549;-53
2022/10/26 10:59:25;;;;;;;15.03;10.50;;;;;;;;;;5043344;27;87110;-53
2022/10/26 11:01:56;;;;;;;27.03;10.97;;;;;;;;;;5054324;27;87981;-52
2022/10/26 11:04:29;;;;;;;20.70;9.97;;;;;;;;;;5062251;27;87823;-53
2022/10/26 11:06:57;;;;;;;15.53;7.90;;;;;;;;;;5061979;27;87063;-53
2022/10/26 11:09:27;;;;;;;9.50;5.73;;;;;;;;;;5062853;27;86354;-52
2022/10/26 11:11:56;;;;;;;12.40;6.50;;;;;;;;;;5062680;27;88595;-54
2022/10/26 11:14:25;;;;;;;13.73;5.63;;;;;;;;;;5062315;27;88939;-53
2022/10/26 11:16:53;;;;;;;12.77;6.17;;;;;;;;;;5062617;27;88003;-53
2022/10/26 11:19:23;;;;;;;8.20;3.97;;;;;;;;;;5062294;27;87057;-53
2022/10/26 11:21:51;;;;;;;10.97;3.63;;;;;;;;;;5062418;27;89013;-53
2022/10/26 11:24:21;;;;;;;3.50;2.60;;;;;;;;;;5062993;27;87174;-53
2022/10/26 11:26:54;;;;;;;8.27;3.93;;;;;;;;;;5062737;27;87105;-54
2022/10/26 11:29:37;;;;;;;9.17;2.97;;;;;;;;;;5062733;27;86994;-52
2022/10/26 11:32:11;;;;;;;11.00;3.80;;;;;;;;;;5060676;27;89120;-53
2022/10/26 11:34:40;;;;;;;4.77;3.07;;;;;;;;;;5062546;27;87681;-52
2022/10/26 11:37:10;;;;;;;2.80;2.07;;;;;;;;;;5062749;27;86983;-53
2022/10/26 11:39:40;;;;;;;5.27;2.07;;;;;;;;;;5061834;27;86985;-53
2022/10/26 11:42:12;;;;;;;2.73;1.80;;;;;;;;;;5061214;27;89236;-53
2022/10/26 11:44:40;;;;;;;2.87;1.90;;;;;;;;;;5061914;27;88585;-52
2022/10/26 11:47:11;;;;;;;3.03;2.13;;;;;;;;;;5062333;27;87307;-52
2022/10/26 11:49:40;;;;;;;4.00;2.33;;;;;;;;;;5061613;27;87564;-53
2022/10/26 11:52:10;;;;;;;6.47;2.47;;;;;;;;;;5061886;27;89465;-54
2022/10/26 11:54:39;;;;;;;2.87;2.07;;;;;;;;;;5062064;27;87856;-53
2022/10/26 11:57:07;;;;;;;2.40;2.00;;;;;;;;;;5062244;27;86964;-52
2022/10/26 11:59:38;;;;;;;4.80;2.23;;;;;;;;;;5062684;27;86285;-53
2022/10/26 12:02:07;;;;;;;2.20;1.60;;;;;;;;;;5061788;27;88026;-54
2022/10/26 12:04:36;;;;;;;3.40;1.67;;;;;;;;;;5062063;27;88688;-53
2022/10/26 12:07:05;;;;;;;1.43;1.10;;;;;;;;;;5061657;27;87852;-53
2022/10/26 12:09:34;;;;;;;1.43;1.10;;;;;;;;;;5062085;27;87094;-53
2022/10/26 12:12:03;;;;;;;1.13;1.03;;;;;;;;;;5062017;27;89077;-53
2022/10/26 12:14:33;;;;;;;4.40;1.87;;;;;;;;;;5061584;27;91784;-53
2022/10/26 12:17:04;;;;;;;2.93;1.50;;;;;;;;;;5061920;27;87008;-54
2022/10/26 12:19:34;;;;;;;3.93;1.53;;;;;;;;;;5060764;27;87007;-53
2022/10/26 12:22:02;;;;;;;2.90;1.20;;;;;;;;;;5061440;27;89155;-53
2022/10/26 12:24:34;;;;;;;4.00;1.40;;;;;;;;;;5061813;27;89022;-53
2022/10/26 12:27:02;;;;;;;1.00;0.80;;;;;;;;;;5061417;27;86988;-53
2022/10/26 12:29:31;;;;;;;1.13;0.87;;;;;;;;;;5061609;27;86964;-53
2022/10/26 12:32:01;;;;;;;1.37;1.10;;;;;;;;;;5060971;27;89180;-54
2022/10/26 12:34:44;;;;;;;0.77;0.77;;;;;;;;;;5061560;27;88503;-54
2022/10/26 12:37:22;;;;;;;1.67;0.90;;;;;;;;;;5060413;27;87796;-54
2022/10/26 12:39:51;;;;;;;2.00;1.30;;;;;;;;;;5061205;27;86943;-53
2022/10/26 12:42:29;;;;;;;1.90;0.97;;;;;;;;;;5061125;27;87992;-53
2022/10/26 12:45:08;;;;;;;2.00;1.60;;;;;;;;;;5061070;27;88861;-53
2022/10/26 12:47:51;;;;;;;1.10;0.60;;;;;;;;;;5061372;27;87078;-54
2022/10/26 12:50:22;;;;;;;1.07;0.97;;;;;;;;;;5060257;27;86928;-54
2022/10/26 12:52:53;;;;;;;1.13;0.60;;;;;;;;;;5060918;27;87990;-53
2022/10/26 12:55:31;;;;;;;2.30;1.03;;;;;;;;;;5060971;27;87979;-53
2022/10/26 12:58:02;;;;;;;1.00;0.67;;;;;;;;;;5060604;27;87929;-54
2022/10/26 13:00:31;;;;;;;1.03;0.80;;;;;;;;;;5060626;27;87161;-54
2022/10/26 13:03:04;;;;;;;0.53;0.40;;;;;;;;;;5060964;27;88143;-54
2022/10/26 13:05:49;;;;;;;1.80;0.60;;;;;;;;;;5061110;27;88840;-54
2022/10/26 13:08:19;;;;;;;0.63;0.60;;;;;;;;;;5061231;27;87052;-53
2022/10/26 13:11:00;;;;;;;3.03;0.87;;;;;;;;;;5061024;27;86995;-53
2022/10/26 13:13:29;;;;;;;0.50;0.50;;;;;;;;;;5060680;27;88133;-54
2022/10/26 13:15:57;;;;;;;2.37;0.57;;;;;;;;;;5060938;27;87510;-53
2022/10/26 13:18:25;;;;;;;1.67;0.67;;;;;;;;;;5060811;27;87056;-53
2022/10/26 13:20:54;;;;;;;4.13;0.93;;;;;;;;;;5060873;27;87064;-54
2022/10/26 13:23:25;;;;;;;0.53;0.47;;;;;;;;;;5060059;27;89917;-54
2022/10/26 13:26:04;;;;;;;1.43;0.60;;;;;;;;;;5060797;27;87225;-54
2022/10/26 13:28:33;;;;;;;2.47;0.73;;;;;;;;;;5061067;27;87079;-53
2022/10/26 13:31:01;;;;;;;0.80;0.80;;;;;;;;;;5060863;27;86996;-54
2022/10/26 13:33:32;;;;;;;5.57;0.90;;;;;;;;;;5060438;27;89065;-53
2022/10/26 13:36:02;;;;;;;0.57;0.57;;;;;;;;;;5060198;27;88452;-53
2022/10/26 13:38:32;;;;;;;2.30;0.80;;;;;;;;;;5060662;27;86979;-53
2022/10/26 13:41:05;;;;;;;0.60;0.60;;;;;;;;;;5060797;27;86199;-54
2022/10/26 13:43:33;;;;;;;0.50;0.50;;;;;;;;;;5060427;27;88888;-54
2022/10/26 13:46:01;;;;;;;3.50;0.83;;;;;;;;;;5060798;27;88890;-53
2022/10/26 13:48:32;;;;;;;0.50;0.50;;;;;;;;;;5060237;27;87886;-54
2022/10/26 13:51:01;;;;;;;2.13;0.60;;;;;;;;;;5060211;27;87019;-54
2022/10/26 13:53:32;;;;;;;0.50;0.43;;;;;;;;;;5060222;27;89410;-53
2022/10/26 13:56:06;;;;;;;1.60;0.70;;;;;;;;;;5063292;27;88899;-53
2022/10/26 13:58:35;;;;;;;0.40;0.40;;;;;;;;;;5064172;27;87007;-54
2022/10/26 14:01:04;;;;;;;0.50;0.50;;;;;;;;;;5063745;27;86976;-53
2022/10/26 14:03:32;;;;;;;1.37;0.50;;;;;;;;;;5063693;27;89047;-54
2022/10/26 14:06:00;;;;;;;0.47;0.40;;;;;;;;;;5064079;27;87788;-53
2022/10/26 14:08:29;;;;;;;0.30;0.30;;;;;;;;;;5064439;27;87035;-53
2022/10/26 14:10:58;;;;;;;0.40;0.40;;;;;;;;;;5064118;27;87060;-54
2022/10/26 14:13:28;;;;;;;0.50;0.50;;;;;;;;;;5062894;27;89040;-53
2022/10/26 14:15:57;;;;;;;3.17;0.47;;;;;;;;;;5062911;27;89866;-54
2022/10/26 14:18:25;;;;;;;0.20;0.20;;;;;;;;;;5063787;27;87239;-54
2022/10/26 14:20:56;;;;;;;0.47;0.47;;;;;;;;;;5063318;27;86962;-53
2022/10/26 14:23:27;;;;;;;0.63;0.60;;;;;;;;;;5063548;27;88427;-53
2022/10/26 14:25:56;;;;;;;0.40;0.40;;;;;;;;;;5063443;27;87630;-54
2022/10/26 14:28:28;;;;;;;0.40;0.40;;;;;;;;;;5063426;27;87046;-54
2022/10/26 14:31:11;;;;;;;1.70;0.70;;;;;;;;;;5063163;27;86294;-54
2022/10/26 14:33:45;;;;;;;0.63;0.50;;;;;;;;;;5063434;27;88052;-54
2022/10/26 14:36:13;;;;;;;0.50;0.43;;;;;;;;;;5063345;27;87457;-53
2022/10/26 14:38:43;;;;;;;0.70;0.70;;;;;;;;;;5062994;27;88016;-54
2022/10/26 14:41:11;;;;;;;0.97;0.50;;;;;;;;;;5063351;27;87025;-54
2022/10/26 14:43:42;;;;;;;0.67;0.67;;;;;;;;;;5063349;27;89109;-53
2022/10/26 14:46:12;;;;;;;2.50;1.13;;;;;;;;;;5063618;27;87190;-54
2022/10/26 14:48:41;;;;;;;0.63;0.60;;;;;;;;;;5063686;27;86978;-54
2022/10/26 14:51:10;;;;;;;0.50;0.50;;;;;;;;;;5063254;27;87061;-53
2022/10/26 14:53:39;;;;;;;0.40;0.40;;;;;;;;;;5062953;27;88299;-53
2022/10/26 14:56:24;;;;;;;0.83;0.63;;;;;;;;;;5063426;27;87551;-55
2022/10/26 14:58:54;;;;;;;0.60;0.60;;;;;;;;;;5063196;27;87033;-54